createdAt,value
2019-02-10T00:00:41.394Z,60.08
2019-02-10T00:01:50.280Z,60.16
2019-02-10T00:02:57.999Z,60.06
2019-02-10T00:04:06.399Z,60.06
2019-02-10T00:05:14.399Z,60.08
2019-02-10T00:06:24.702Z,60.08
2019-02-10T00:07:32.073Z,60.20
2019-02-10T00:08:39.811Z,60.29
2019-02-10T00:09:47.904Z,60.34
2019-02-10T00:10:55.914Z,60.22
2019-02-10T00:12:05.029Z,60.43
2019-02-10T00:13:32.893Z,60.34
2019-02-10T00:14:40.771Z,60.28
2019-02-10T00:15:48.592Z,60.31
2019-02-10T00:16:56.973Z,60.35
2019-02-10T00:18:05.002Z,60.32
2019-02-10T00:19:59.344Z,60.38
2019-02-10T00:21:08.267Z,60.54
2019-02-10T00:22:16.785Z,60.53
2019-02-10T00:23:25.543Z,60.52
2019-02-10T00:24:33.539Z,60.53
2019-02-10T00:25:41.778Z,60.53
2019-02-10T00:26:50.081Z,60.40
2019-02-10T00:27:58.004Z,60.41
2019-02-10T00:29:06.071Z,60.39
2019-02-10T00:30:13.894Z,60.37
2019-02-10T00:31:22.043Z,60.32
2019-02-10T00:32:30.183Z,60.26
2019-02-10T00:33:38.101Z,60.27
2019-02-10T00:34:46.476Z,60.32
2019-02-10T00:35:55.184Z,60.35
2019-02-10T00:37:03.535Z,60.41
2019-02-10T00:38:11.809Z,60.51
2019-02-10T00:39:19.578Z,60.54
2019-02-10T00:40:27.437Z,60.59
2019-02-10T00:41:35.600Z,60.57
2019-02-10T00:42:43.715Z,60.56
2019-02-10T00:43:52.348Z,60.57
2019-02-10T00:45:00.317Z,60.53
2019-02-10T00:46:09.239Z,60.50
2019-02-10T00:47:17.137Z,60.58
2019-02-10T00:48:25.243Z,60.54
2019-02-10T00:49:33.449Z,60.50
2019-02-10T00:50:41.436Z,60.51
2019-02-10T00:51:49.959Z,60.56
2019-02-10T00:52:57.895Z,60.53
2019-02-10T00:54:06.131Z,60.48
2019-02-10T00:55:14.339Z,60.42
2019-02-10T00:56:22.275Z,60.46
2019-02-10T00:57:30.430Z,60.41
2019-02-10T00:58:38.300Z,60.41
2019-02-10T00:59:46.129Z,60.31
2019-02-10T01:00:54.072Z,60.33
2019-02-10T01:02:02.101Z,60.34
2019-02-10T01:03:09.976Z,60.36
2019-02-10T01:04:18.569Z,60.31
2019-02-10T01:05:26.300Z,60.33
2019-02-10T01:06:41.187Z,60.37
2019-02-10T01:07:44.898Z,60.39
2019-02-10T01:08:52.939Z,60.30
2019-02-10T01:10:01.143Z,60.34
2019-02-10T01:11:09.542Z,60.35
2019-02-10T01:12:17.613Z,60.34
2019-02-10T01:13:25.741Z,60.38
2019-02-10T01:14:34.108Z,60.28
2019-02-10T01:15:42.042Z,60.22
2019-02-10T01:16:49.696Z,60.17
2019-02-10T01:17:57.601Z,60.21
2019-02-10T01:19:07.825Z,60.18
2019-02-10T01:20:15.787Z,60.23
2019-02-10T01:21:23.682Z,60.23
2019-02-10T01:22:31.550Z,60.22
2019-02-10T01:23:39.632Z,60.30
2019-02-10T01:24:47.902Z,60.38
2019-02-10T01:25:55.815Z,60.50
2019-02-10T01:27:04.282Z,60.51
2019-02-10T01:28:12.376Z,60.60
2019-02-10T01:29:20.426Z,60.69
2019-02-10T01:30:28.783Z,60.69
2019-02-10T01:31:36.963Z,60.78
2019-02-10T01:32:44.986Z,60.79
2019-02-10T01:33:53.015Z,60.82
2019-02-10T01:35:00.910Z,60.75
2019-02-10T01:36:09.143Z,60.71
2019-02-10T01:37:17.248Z,60.69
2019-02-10T01:38:25.177Z,60.66
2019-02-10T01:39:33.083Z,60.64
2019-02-10T01:40:41.608Z,60.60
2019-02-10T01:41:49.495Z,60.61
2019-02-10T01:42:57.784Z,60.70
2019-02-10T01:44:05.538Z,60.77
2019-02-10T01:45:14.212Z,60.76
2019-02-10T01:46:22.025Z,60.81
2019-02-10T01:47:29.756Z,60.81
2019-02-10T01:48:37.533Z,60.86
2019-02-10T01:49:45.963Z,60.81
2019-02-10T01:50:53.729Z,60.84
2019-02-10T01:52:02.047Z,60.82
2019-02-10T01:53:10.281Z,60.81
2019-02-10T01:54:18.138Z,60.82
2019-02-10T01:55:26.071Z,60.84
2019-02-10T01:56:33.888Z,60.83
2019-02-10T01:57:42.155Z,60.82
2019-02-10T01:58:50.243Z,60.82
2019-02-10T01:59:58.244Z,60.81
2019-02-10T02:01:06.283Z,60.80
2019-02-10T02:02:14.104Z,60.79
2019-02-10T02:03:22.048Z,60.80
2019-02-10T02:04:30.066Z,60.80
2019-02-10T02:05:37.927Z,60.83
2019-02-10T02:06:45.711Z,60.83
2019-02-10T02:07:53.863Z,60.88
2019-02-10T02:09:01.953Z,60.94
2019-02-10T02:10:13.385Z,60.96
2019-02-10T02:11:21.096Z,60.98
2019-02-10T02:12:29.455Z,60.95
2019-02-10T02:13:37.191Z,60.99
2019-02-10T02:14:45.502Z,61.03
2019-02-10T02:15:53.310Z,61.01
2019-02-10T02:17:01.140Z,61.01
2019-02-10T02:18:09.189Z,61.10
2019-02-10T02:19:17.255Z,61.11
2019-02-10T02:20:25.450Z,61.29
2019-02-10T02:21:33.712Z,61.19
2019-02-10T02:22:41.660Z,61.15
2019-02-10T02:23:49.750Z,61.06
2019-02-10T02:24:57.549Z,61.02
2019-02-10T02:26:05.445Z,61.07
2019-02-10T02:27:13.506Z,61.04
2019-02-10T02:28:22.137Z,60.95
2019-02-10T02:29:30.059Z,60.97
2019-02-10T02:30:37.895Z,61.09
2019-02-10T02:31:45.643Z,61.13
2019-02-10T02:32:53.716Z,61.19
2019-02-10T02:34:01.774Z,61.17
2019-02-10T02:35:09.769Z,61.18
2019-02-10T02:36:18.358Z,61.12
2019-02-10T02:37:26.469Z,61.09
2019-02-10T02:38:34.766Z,61.09
2019-02-10T02:39:42.729Z,61.06
2019-02-10T02:40:50.588Z,61.08
2019-02-10T02:41:58.261Z,61.27
2019-02-10T02:43:06.219Z,61.26
2019-02-10T02:44:14.262Z,61.32
2019-02-10T02:45:22.409Z,61.35
2019-02-10T02:46:30.749Z,61.37
2019-02-10T02:47:39.392Z,61.36
2019-02-10T02:48:46.989Z,61.40
2019-02-10T02:49:55.105Z,61.43
2019-02-10T02:51:03.592Z,61.40
2019-02-10T02:52:11.776Z,61.48
2019-02-10T02:53:19.909Z,61.44
2019-02-10T02:54:27.535Z,61.43
2019-02-10T02:55:35.454Z,61.46
2019-02-10T02:56:43.581Z,61.46
2019-02-10T02:57:51.909Z,61.46
2019-02-10T02:59:00.357Z,61.51
2019-02-10T03:00:10.797Z,61.54
2019-02-10T03:01:18.847Z,61.58
2019-02-10T03:02:27.129Z,61.66
2019-02-10T03:03:35.401Z,61.66
2019-02-10T03:04:45.193Z,61.67
2019-02-10T03:05:53.279Z,61.63
2019-02-10T03:07:02.249Z,61.62
2019-02-10T03:08:10.338Z,61.60
2019-02-10T03:09:18.389Z,61.53
2019-02-10T03:10:26.521Z,61.51
2019-02-10T03:11:35.200Z,61.50
2019-02-10T03:12:42.888Z,61.54
2019-02-10T03:13:51.408Z,61.52
2019-02-10T03:14:59.795Z,61.52
2019-02-10T03:16:07.590Z,61.62
2019-02-10T03:17:15.913Z,61.70
2019-02-10T03:18:24.077Z,61.78
2019-02-10T03:19:32.830Z,61.76
2019-02-10T03:20:40.901Z,61.87
2019-02-10T03:21:48.700Z,61.87
2019-02-10T03:22:56.979Z,61.88
2019-02-10T03:24:04.768Z,61.89
2019-02-10T03:25:13.112Z,61.91
2019-02-10T03:26:21.271Z,61.93
2019-02-10T03:27:29.163Z,62.10
2019-02-10T03:28:36.774Z,62.03
2019-02-10T03:29:44.949Z,62.06
2019-02-10T03:30:52.946Z,62.04
2019-02-10T03:32:00.777Z,62.02
2019-02-10T03:33:08.774Z,62.00
2019-02-10T03:34:16.934Z,62.02
2019-02-10T03:35:25.215Z,62.00
2019-02-10T03:36:33.080Z,62.01
2019-02-10T03:37:41.103Z,62.01
2019-02-10T03:38:49.098Z,62.03
2019-02-10T03:39:57.225Z,62.01
2019-02-10T03:41:04.982Z,62.02
2019-02-10T03:42:13.182Z,62.04
2019-02-10T03:43:21.645Z,62.08
2019-02-10T03:44:29.564Z,62.16
2019-02-10T03:45:37.602Z,62.17
2019-02-10T03:46:45.705Z,62.17
2019-02-10T03:47:53.932Z,62.33
2019-02-10T03:49:01.796Z,62.53
2019-02-10T03:50:11.295Z,62.52
2019-02-10T03:51:19.228Z,62.57
2019-02-10T03:52:27.593Z,62.67
2019-02-10T03:53:35.739Z,62.64
2019-02-10T03:54:43.736Z,62.82
2019-02-10T03:55:51.781Z,62.76
2019-02-10T03:56:59.881Z,62.84
2019-02-10T03:58:08.209Z,62.77
2019-02-10T03:59:16.892Z,62.74
2019-02-10T04:00:24.614Z,62.72
2019-02-10T04:01:32.545Z,62.70
2019-02-10T04:02:40.628Z,62.68
2019-02-10T04:03:49.241Z,62.68
2019-02-10T04:04:57.304Z,62.65
2019-02-10T04:06:05.424Z,62.68
2019-02-10T04:07:13.944Z,62.70
2019-02-10T04:08:22.224Z,62.67
2019-02-10T04:09:30.095Z,62.64
2019-02-10T04:10:38.676Z,62.70
2019-02-10T04:11:46.209Z,62.66
2019-02-10T04:12:53.995Z,62.71
2019-02-10T04:14:02.781Z,62.69
2019-02-10T04:15:11.253Z,62.70
2019-02-10T04:16:19.849Z,62.74
2019-02-10T04:17:29.951Z,62.74
2019-02-10T04:18:38.548Z,62.78
2019-02-10T04:19:46.614Z,62.80
2019-02-10T04:20:54.694Z,62.85
2019-02-10T04:22:02.610Z,62.86
2019-02-10T04:23:10.511Z,62.89
2019-02-10T04:24:18.597Z,62.87
2019-02-10T04:25:26.378Z,62.87
2019-02-10T04:26:34.241Z,62.88
2019-02-10T04:27:41.923Z,62.89
2019-02-10T04:28:50.129Z,62.92
2019-02-10T04:29:58.167Z,62.92
2019-02-10T04:31:06.655Z,63.09
2019-02-10T04:32:14.641Z,63.32
2019-02-10T04:33:22.767Z,63.23
2019-02-10T04:34:31.069Z,63.26
2019-02-10T04:35:39.072Z,63.39
2019-02-10T04:36:47.214Z,63.36
2019-02-10T04:37:55.321Z,63.47
2019-02-10T04:39:05.052Z,63.43
2019-02-10T04:40:12.993Z,63.43
2019-02-10T04:41:21.255Z,63.63
2019-02-10T04:42:29.180Z,63.66
2019-02-10T04:43:37.017Z,63.75
2019-02-10T04:44:44.873Z,63.66
2019-02-10T04:45:52.771Z,63.57
2019-02-10T04:47:00.883Z,63.78
2019-02-10T04:48:09.249Z,63.75
2019-02-10T04:49:17.407Z,63.65
2019-02-10T04:50:25.476Z,63.76
2019-02-10T04:51:33.216Z,63.84
2019-02-10T04:52:41.226Z,64.11
2019-02-10T04:53:49.132Z,63.98
2019-02-10T04:54:57.378Z,64.13
2019-02-10T04:56:18.104Z,64.13
2019-02-10T04:57:26.253Z,64.14
2019-02-10T04:58:34.195Z,64.15
2019-02-10T04:59:42.289Z,64.16
2019-02-10T05:00:50.503Z,64.31
2019-02-10T05:01:59.225Z,64.46
2019-02-10T05:03:07.143Z,64.54
2019-02-10T05:04:15.282Z,64.57
2019-02-10T05:05:23.309Z,64.64
2019-02-10T05:06:31.270Z,64.78
2019-02-10T05:07:39.146Z,64.81
2019-02-10T05:08:47.400Z,64.76
2019-02-10T05:09:55.387Z,64.96
2019-02-10T05:11:03.815Z,64.99
2019-02-10T05:12:11.873Z,65.10
2019-02-10T05:13:20.318Z,65.11
2019-02-10T05:14:28.249Z,65.18
2019-02-10T05:15:36.653Z,65.19
2019-02-10T05:16:45.070Z,65.01
2019-02-10T05:17:53.161Z,65.03
2019-02-10T05:19:01.482Z,65.08
2019-02-10T05:20:09.907Z,65.14
2019-02-10T05:21:17.946Z,65.12
2019-02-10T05:22:25.793Z,65.13
2019-02-10T05:23:33.877Z,65.11
2019-02-10T05:24:41.967Z,64.98
2019-02-10T05:25:50.187Z,65.12
2019-02-10T05:26:58.038Z,65.15
2019-02-10T05:28:05.964Z,65.21
2019-02-10T05:29:14.066Z,65.40
2019-02-10T05:30:23.823Z,65.29
2019-02-10T05:31:32.245Z,65.30
2019-02-10T05:32:40.561Z,65.32
2019-02-10T05:33:48.864Z,65.24
2019-02-10T05:34:56.797Z,65.24
2019-02-10T05:36:05.077Z,65.17
2019-02-10T05:37:13.101Z,65.11
2019-02-10T05:38:21.382Z,65.08
2019-02-10T05:39:29.166Z,65.20
2019-02-10T05:40:37.126Z,65.10
2019-02-10T05:41:45.172Z,65.27
2019-02-10T05:42:53.577Z,65.38
2019-02-10T05:44:01.457Z,65.39
2019-02-10T05:45:10.193Z,65.66
2019-02-10T05:46:18.174Z,65.65
2019-02-10T05:47:26.475Z,65.60
2019-02-10T05:48:34.639Z,65.64
2019-02-10T05:49:43.445Z,65.81
2019-02-10T05:50:51.997Z,65.68
2019-02-10T05:51:59.875Z,65.73
2019-02-10T05:53:07.949Z,65.82
2019-02-10T05:54:16.275Z,65.75
2019-02-10T05:55:24.368Z,65.86
2019-02-10T05:56:32.274Z,65.67
2019-02-10T05:57:40.177Z,65.61
2019-02-10T05:58:48.428Z,65.46
2019-02-10T05:59:57.242Z,65.46
2019-02-10T06:01:32.333Z,65.48
2019-02-10T06:02:40.510Z,65.51
2019-02-10T06:03:48.696Z,65.30
2019-02-10T06:04:56.693Z,65.24
2019-02-10T06:06:05.428Z,65.22
2019-02-10T06:07:16.889Z,65.21
2019-02-10T06:08:25.079Z,65.17
2019-02-10T06:09:32.901Z,65.10
2019-02-10T06:10:41.114Z,65.16
2019-02-10T06:11:49.184Z,65.11
2019-02-10T06:12:57.150Z,65.02
2019-02-10T06:14:05.116Z,65.01
2019-02-10T06:15:13.074Z,64.97
2019-02-10T06:16:21.258Z,64.94
2019-02-10T06:17:29.045Z,64.92
2019-02-10T06:18:37.697Z,64.86
2019-02-10T06:19:45.629Z,64.89
2019-02-10T06:20:53.847Z,64.76
2019-02-10T06:22:03.471Z,64.64
2019-02-10T06:23:11.274Z,64.48
2019-02-10T06:24:18.909Z,64.27
2019-02-10T06:25:27.174Z,64.10
2019-02-10T06:26:35.345Z,63.99
2019-02-10T06:27:43.409Z,63.84
2019-02-10T06:28:51.764Z,63.68
2019-02-10T06:29:59.711Z,63.61
2019-02-10T06:31:07.884Z,63.48
2019-02-10T06:32:15.722Z,63.27
2019-02-10T06:33:23.666Z,63.03
2019-02-10T06:34:32.628Z,62.87
2019-02-10T06:35:40.527Z,62.65
2019-02-10T06:36:48.515Z,62.63
2019-02-10T06:37:56.395Z,62.55
2019-02-10T06:39:05.339Z,62.49
2019-02-10T06:40:13.935Z,62.45
2019-02-10T06:41:21.786Z,62.42
2019-02-10T06:42:30.090Z,62.41
2019-02-10T06:43:38.263Z,62.40
2019-02-10T06:44:48.942Z,62.44
2019-02-10T06:45:57.282Z,62.41
2019-02-10T06:47:05.350Z,62.33
2019-02-10T06:48:13.380Z,62.18
2019-02-10T06:49:21.845Z,62.17
2019-02-10T06:50:29.795Z,62.00
2019-02-10T06:51:37.972Z,61.88
2019-02-10T06:52:45.798Z,61.70
2019-02-10T06:53:53.998Z,61.56
2019-02-10T06:55:01.824Z,61.44
2019-02-10T06:56:10.064Z,61.11
2019-02-10T06:57:18.089Z,60.94
2019-02-10T06:58:26.315Z,60.61
2019-02-10T06:59:38.992Z,60.09
2019-02-10T07:00:48.716Z,59.80
2019-02-10T07:02:01.044Z,59.54
2019-02-10T07:03:37.186Z,59.04
2019-02-10T07:04:45.786Z,58.76
2019-02-10T07:05:53.641Z,58.07
2019-02-10T07:07:01.640Z,57.59
2019-02-10T07:08:09.634Z,57.11
2019-02-10T07:09:17.615Z,56.99
2019-02-10T07:10:25.755Z,56.62
2019-02-10T07:11:33.860Z,56.37
2019-02-10T07:12:49.768Z,56.01
2019-02-10T07:13:59.432Z,55.62
2019-02-10T07:15:11.103Z,55.06
2019-02-10T07:16:57.024Z,54.94
2019-02-10T07:19:00.209Z,54.76
2019-02-10T07:20:42.713Z,54.22
2019-02-10T07:21:50.954Z,53.92
2019-02-10T07:23:02.474Z,53.74
2019-02-10T07:24:45.860Z,53.81
2019-02-10T07:25:53.935Z,53.54
2019-02-10T07:27:15.294Z,53.60
2019-02-10T07:28:28.043Z,53.58
2019-02-10T07:29:55.908Z,53.34
2019-02-10T07:31:03.751Z,53.49
2019-02-10T07:32:14.741Z,59.13
2019-02-10T07:33:59.133Z,55.26
2019-02-10T07:35:14.354Z,49.45
2019-02-10T07:36:29.875Z,47.38
2019-02-10T07:37:42.801Z,48.63
2019-02-10T07:39:04.796Z,49.29
2019-02-10T07:41:07.727Z,49.87
2019-02-10T07:42:38.307Z,50.54
2019-02-10T07:44:06.075Z,51.50
2019-02-10T07:45:24.681Z,51.88
2019-02-10T07:46:55.499Z,52.00
2019-02-10T07:48:22.661Z,52.25
2019-02-10T07:50:02.584Z,52.38
2019-02-10T07:51:39.690Z,52.16
2019-02-10T07:53:01.491Z,52.15
2019-02-10T07:54:42.343Z,51.94
2019-02-10T07:56:04.102Z,51.81
2019-02-10T07:57:37.774Z,51.58
2019-02-10T07:59:09.066Z,51.34
2019-02-10T08:00:40.799Z,50.72
2019-02-10T08:02:02.518Z,50.32
2019-02-10T08:03:27.199Z,49.26
2019-02-10T08:04:51.885Z,48.12
2019-02-10T08:06:36.956Z,46.49
2019-02-10T08:08:04.801Z,45.18
2019-02-10T08:09:38.277Z,42.83
2019-02-10T08:11:21.265Z,40.79
2019-02-10T08:13:04.480Z,38.63
2019-02-10T08:14:46.998Z,35.86
2019-02-10T08:16:14.967Z,33.37
2019-02-10T08:17:30.408Z,31.08
2019-02-10T08:18:51.700Z,29.38
2019-02-10T08:20:26.785Z,28.35
2019-02-10T08:21:45.111Z,26.92
2019-02-10T08:23:20.005Z,25.19
2019-02-10T08:24:47.407Z,25.43
2019-02-10T08:26:20.967Z,26.20
2019-02-10T08:27:54.699Z,26.94
2019-02-10T08:29:22.225Z,27.12
2019-02-10T08:30:49.651Z,26.63
2019-02-10T08:32:32.431Z,26.97
2019-02-10T08:33:51.070Z,26.43
2019-02-10T08:35:38.471Z,25.45
2019-02-10T08:37:09.563Z,24.33
2019-02-10T08:38:34.238Z,23.81
2019-02-10T08:39:52.375Z,22.18
2019-02-10T08:41:14.441Z,22.18
2019-02-10T08:42:56.627Z,21.66
2019-02-10T08:44:21.114Z,20.89
2019-02-10T08:45:51.521Z,19.61
2019-02-10T08:47:22.308Z,19.39
2019-02-10T08:48:38.178Z,18.77
2019-02-10T08:50:10.468Z,18.21
2019-02-10T08:51:47.659Z,17.67
2019-02-10T08:53:09.500Z,17.03
2019-02-10T08:54:17.588Z,16.68
2019-02-10T08:55:25.865Z,16.32
2019-02-10T08:56:33.809Z,15.56
2019-02-10T08:57:41.777Z,15.77
2019-02-10T08:58:49.453Z,15.56
2019-02-10T08:59:57.635Z,15.50
2019-02-10T09:01:05.453Z,15.27
2019-02-10T09:02:13.623Z,14.43
2019-02-10T09:03:21.546Z,14.71
2019-02-10T09:04:29.468Z,14.68
2019-02-10T09:05:37.414Z,13.88
2019-02-10T09:06:45.404Z,13.43
2019-02-10T09:07:53.425Z,13.86
2019-02-10T09:09:02.605Z,14.05
2019-02-10T09:10:13.784Z,13.77
2019-02-10T09:11:22.161Z,13.34
2019-02-10T09:12:30.250Z,13.43
2019-02-10T09:13:38.497Z,13.46
2019-02-10T09:14:46.385Z,13.32
2019-02-10T09:15:54.447Z,13.14
2019-02-10T09:17:02.493Z,12.78
2019-02-10T09:18:10.355Z,12.56
2019-02-10T09:19:18.678Z,11.44
2019-02-10T09:20:26.798Z,11.41
2019-02-10T09:21:34.929Z,11.38
2019-02-10T09:22:43.602Z,11.83
2019-02-10T09:23:51.522Z,11.97
2019-02-10T09:24:59.747Z,11.80
2019-02-10T09:26:07.983Z,10.80
2019-02-10T09:27:16.150Z,11.64
2019-02-10T09:28:24.219Z,10.87
2019-02-10T09:29:32.522Z,11.86
2019-02-10T09:30:40.467Z,11.82
2019-02-10T09:31:48.912Z,11.94
2019-02-10T09:32:56.963Z,11.18
2019-02-10T09:34:04.974Z,11.44
2019-02-10T09:35:12.811Z,11.57
2019-02-10T09:36:20.863Z,11.26
2019-02-10T09:37:29.072Z,11.43
2019-02-10T09:38:38.082Z,11.29
2019-02-10T09:39:45.998Z,10.91
2019-02-10T09:40:54.594Z,10.78
2019-02-10T09:42:02.643Z,10.56
2019-02-10T09:43:11.012Z,10.22
2019-02-10T09:44:18.959Z,10.06
2019-02-10T09:45:26.641Z,10.52
2019-02-10T09:46:34.891Z,10.49
2019-02-10T09:47:43.056Z,10.40
2019-02-10T09:48:51.019Z,10.26
2019-02-10T09:49:58.911Z,10.43
2019-02-10T09:51:06.941Z,10.41
2019-02-10T09:52:14.959Z,10.27
2019-02-10T09:53:22.998Z,10.16
2019-02-10T09:54:30.725Z,10.13
2019-02-10T09:55:38.629Z,10.01
2019-02-10T09:56:46.671Z,10.04
2019-02-10T09:57:54.734Z,10.20
2019-02-10T09:59:02.730Z,10.41
2019-02-10T10:00:15.756Z,10.47
2019-02-10T10:01:23.880Z,10.52
2019-02-10T10:02:31.902Z,10.33
2019-02-10T10:03:40.179Z,10.24
2019-02-10T10:04:48.691Z,10.13
2019-02-10T10:05:57.015Z,9.91
2019-02-10T10:07:04.861Z,9.79
2019-02-10T10:08:13.195Z,9.51
2019-02-10T10:09:21.244Z,9.25
2019-02-10T10:10:29.098Z,9.11
2019-02-10T10:11:37.113Z,8.62
2019-02-10T10:12:45.287Z,8.61
2019-02-10T10:13:53.010Z,8.38
2019-02-10T10:15:01.164Z,8.43
2019-02-10T10:16:09.714Z,8.52
2019-02-10T10:17:17.569Z,8.07
2019-02-10T10:18:25.177Z,8.06
2019-02-10T10:19:33.080Z,8.02
2019-02-10T10:20:41.841Z,8.39
2019-02-10T10:21:50.084Z,8.47
2019-02-10T10:22:58.095Z,8.33
2019-02-10T10:24:05.827Z,8.23
2019-02-10T10:25:13.932Z,8.19
2019-02-10T10:26:21.813Z,8.03
2019-02-10T10:27:30.139Z,7.99
2019-02-10T10:28:38.211Z,7.64
2019-02-10T10:29:46.005Z,8.07
2019-02-10T10:30:53.862Z,7.89
2019-02-10T10:32:02.087Z,8.02
2019-02-10T10:33:10.269Z,7.93
2019-02-10T10:34:18.447Z,7.88
2019-02-10T10:35:26.732Z,7.65
2019-02-10T10:36:34.856Z,7.56
2019-02-10T10:37:42.896Z,6.80
2019-02-10T10:38:50.891Z,7.16
2019-02-10T10:39:58.903Z,7.50
2019-02-10T10:41:06.831Z,7.34
2019-02-10T10:42:16.533Z,7.65
2019-02-10T10:43:24.519Z,7.68
2019-02-10T10:44:32.379Z,7.77
2019-02-10T10:45:40.336Z,7.83
2019-02-10T10:46:48.205Z,7.91
2019-02-10T10:47:56.434Z,7.84
2019-02-10T10:49:04.088Z,8.02
2019-02-10T10:50:14.029Z,8.62
2019-02-10T10:51:22.042Z,8.68
2019-02-10T10:52:29.915Z,8.48
2019-02-10T10:53:38.022Z,8.50
2019-02-10T10:54:46.007Z,8.31
2019-02-10T10:55:54.224Z,8.15
2019-02-10T10:57:03.591Z,8.05
2019-02-10T10:58:11.529Z,8.24
2019-02-10T10:59:19.135Z,8.30
2019-02-10T11:00:27.145Z,8.15
2019-02-10T11:01:35.424Z,8.08
2019-02-10T11:02:43.332Z,7.92
2019-02-10T11:03:51.171Z,7.43
2019-02-10T11:04:59.412Z,7.72
2019-02-10T11:06:07.407Z,7.81
2019-02-10T11:07:15.469Z,7.75
2019-02-10T11:08:23.710Z,7.99
2019-02-10T11:09:35.641Z,8.04
2019-02-10T11:10:41.581Z,7.93
2019-02-10T11:11:49.747Z,8.01
2019-02-10T11:12:58.127Z,8.15
2019-02-10T11:14:06.331Z,8.21
2019-02-10T11:15:18.120Z,8.49
2019-02-10T11:16:26.275Z,8.59
2019-02-10T11:17:34.716Z,8.94
2019-02-10T11:18:42.663Z,9.39
2019-02-10T11:19:51.366Z,9.95
2019-02-10T11:21:00.262Z,10.41
2019-02-10T11:22:08.440Z,11.04
2019-02-10T11:23:17.144Z,11.87
2019-02-10T11:24:28.696Z,12.68
2019-02-10T11:25:35.281Z,13.34
2019-02-10T11:26:44.122Z,13.88
2019-02-10T11:27:52.433Z,14.39
2019-02-10T11:29:01.065Z,14.79
2019-02-10T11:30:15.296Z,14.75
2019-02-10T11:31:23.140Z,13.99
2019-02-10T11:32:31.612Z,13.22
2019-02-10T11:33:39.451Z,12.71
2019-02-10T11:34:47.670Z,12.28
2019-02-10T11:35:56.152Z,11.79
2019-02-10T11:38:05.902Z,10.89
2019-02-10T11:39:13.844Z,11.00
2019-02-10T11:40:22.494Z,11.28
2019-02-10T11:41:30.560Z,11.38
2019-02-10T11:42:39.350Z,11.48
2019-02-10T11:43:47.408Z,11.67
2019-02-10T11:44:55.965Z,11.85
2019-02-10T11:46:04.715Z,12.11
2019-02-10T11:47:13.015Z,12.28
2019-02-10T11:48:21.125Z,12.30
2019-02-10T11:49:29.721Z,12.19
2019-02-10T11:50:38.040Z,12.23
2019-02-10T11:51:46.171Z,12.48
2019-02-10T11:52:54.232Z,12.56
2019-02-10T11:54:04.060Z,12.63
2019-02-10T11:55:12.464Z,13.16
2019-02-10T11:56:20.360Z,13.83
2019-02-10T11:57:28.617Z,14.46
2019-02-10T11:58:36.824Z,15.21
2019-02-10T11:59:45.752Z,15.76
2019-02-10T12:00:53.806Z,16.17
2019-02-10T12:02:02.070Z,16.77
2019-02-10T12:03:10.687Z,17.33
2019-02-10T12:04:19.644Z,17.98
2019-02-10T12:05:28.050Z,18.57
2019-02-10T12:06:37.332Z,18.99
2019-02-10T12:07:46.375Z,19.04
2019-02-10T12:08:54.543Z,19.16
2019-02-10T12:10:03.441Z,19.12
2019-02-10T12:11:11.892Z,19.26
2019-02-10T12:12:19.688Z,19.22
2019-02-10T12:13:27.605Z,19.69
2019-02-10T12:14:35.897Z,20.03
2019-02-10T12:15:44.844Z,20.80
2019-02-10T12:16:53.390Z,21.37
2019-02-10T12:18:01.573Z,21.82
2019-02-10T12:19:10.426Z,22.45
2019-02-10T12:20:18.743Z,23.14
2019-02-10T12:21:28.667Z,23.92
2019-02-10T12:22:36.475Z,24.36
2019-02-10T12:23:45.176Z,25.09
2019-02-10T12:24:55.075Z,25.88
2019-02-10T12:26:05.608Z,26.41
2019-02-10T12:27:13.644Z,26.90
2019-02-10T12:28:23.055Z,27.06
2019-02-10T12:29:32.368Z,27.28
2019-02-10T12:30:40.783Z,27.66
2019-02-10T12:31:49.412Z,28.21
2019-02-10T12:32:57.999Z,28.50
2019-02-10T12:34:08.593Z,28.66
2019-02-10T12:35:17.711Z,28.65
2019-02-10T12:36:27.109Z,28.33
2019-02-10T12:37:35.736Z,28.59
2019-02-10T12:38:44.630Z,28.71
2019-02-10T12:39:59.678Z,28.96
2019-02-10T12:41:04.109Z,29.02
2019-02-10T12:42:12.083Z,28.99
2019-02-10T12:43:20.588Z,28.86
2019-02-10T12:44:29.414Z,28.83
2019-02-10T12:45:37.984Z,28.89
2019-02-10T12:46:45.766Z,29.06
2019-02-10T12:47:53.898Z,29.15
2019-02-10T12:49:02.249Z,29.24
2019-02-10T12:50:16.240Z,29.50
2019-02-10T12:51:24.660Z,29.58
2019-02-10T12:52:34.507Z,29.75
2019-02-10T12:53:42.893Z,29.72
2019-02-10T12:54:51.235Z,29.51
2019-02-10T12:55:59.633Z,29.52
2019-02-10T12:57:08.407Z,29.46
2019-02-10T12:58:16.503Z,29.37
2019-02-10T12:59:24.825Z,29.20
2019-02-10T13:00:33.231Z,29.03
2019-02-10T13:01:41.167Z,28.76
2019-02-10T13:02:49.412Z,28.27
2019-02-10T13:03:59.590Z,27.81
2019-02-10T13:05:08.534Z,27.00
2019-02-10T13:06:16.607Z,26.24
2019-02-10T13:07:25.066Z,25.62
2019-02-10T13:08:33.262Z,24.88
2019-02-10T13:09:42.312Z,24.31
2019-02-10T13:10:50.952Z,23.94
2019-02-10T13:11:59.940Z,23.64
2019-02-10T13:13:08.009Z,23.23
2019-02-10T13:14:16.513Z,22.57
2019-02-10T13:15:24.625Z,21.91
2019-02-10T13:16:32.457Z,21.34
2019-02-10T13:17:41.014Z,20.92
2019-02-10T13:18:48.900Z,20.64
2019-02-10T13:19:58.457Z,20.25
2019-02-10T13:21:06.556Z,19.95
2019-02-10T13:22:14.888Z,20.21
2019-02-10T13:23:23.597Z,20.24
2019-02-10T13:24:32.105Z,20.19
2019-02-10T13:25:41.121Z,20.03
2019-02-10T13:26:49.426Z,19.86
2019-02-10T13:27:57.522Z,19.61
2019-02-10T13:29:06.395Z,19.39
2019-02-10T13:30:20.920Z,19.24
2019-02-10T13:31:29.235Z,19.32
2019-02-10T13:32:37.639Z,19.23
2019-02-10T13:33:45.588Z,19.08
2019-02-10T13:34:53.774Z,18.92
2019-02-10T13:36:02.489Z,18.64
2019-02-10T13:37:11.116Z,18.56
2019-02-10T13:38:19.466Z,18.78
2019-02-10T13:39:27.672Z,18.79
2019-02-10T13:40:36.471Z,18.60
2019-02-10T13:41:43.078Z,18.43
2019-02-10T13:42:51.807Z,18.47
2019-02-10T13:44:00.355Z,18.56
2019-02-10T13:45:10.582Z,18.52
2019-02-10T13:46:20.326Z,18.61
2019-02-10T13:47:28.671Z,18.48
2019-02-10T13:48:37.547Z,18.69
2019-02-10T13:49:45.647Z,18.67
2019-02-10T13:50:54.580Z,18.84
2019-02-10T13:52:02.961Z,18.94
2019-02-10T13:53:11.574Z,19.33
2019-02-10T13:54:20.558Z,20.09
2019-02-10T13:55:29.322Z,20.91
2019-02-10T13:56:38.232Z,21.50
2019-02-10T13:57:46.245Z,22.04
2019-02-10T13:58:54.742Z,22.74
2019-02-10T14:00:05.283Z,23.27
2019-02-10T14:01:13.993Z,23.69
2019-02-10T14:02:22.815Z,24.08
2019-02-10T14:03:32.651Z,24.25
2019-02-10T14:04:41.395Z,24.68
2019-02-10T14:05:49.808Z,25.43
2019-02-10T14:06:58.572Z,26.00
2019-02-10T14:08:07.470Z,26.50
2019-02-10T14:09:15.775Z,27.02
2019-02-10T14:10:25.601Z,27.13
2019-02-10T14:11:34.186Z,27.47
2019-02-10T14:12:42.212Z,27.89
2019-02-10T14:13:50.556Z,27.99
2019-02-10T14:14:58.718Z,28.18
2019-02-10T14:16:07.171Z,28.48
2019-02-10T14:17:16.460Z,28.68
2019-02-10T14:18:25.060Z,29.04
2019-02-10T14:19:32.973Z,29.12
2019-02-10T14:20:41.047Z,29.59
2019-02-10T14:21:49.365Z,29.62
2019-02-10T14:22:58.011Z,29.93
2019-02-10T14:24:07.057Z,30.12
2019-02-10T14:25:15.262Z,30.30
2019-02-10T14:26:23.456Z,30.46
2019-02-10T14:27:32.304Z,30.63
2019-02-10T14:28:40.673Z,30.72
2019-02-10T14:29:50.774Z,30.73
2019-02-10T14:30:59.593Z,31.06
2019-02-10T14:32:08.581Z,30.98
2019-02-10T14:33:16.918Z,31.34
2019-02-10T14:34:25.414Z,31.57
2019-02-10T14:35:34.135Z,31.76
2019-02-10T14:36:42.501Z,31.89
2019-02-10T14:37:50.966Z,31.76
2019-02-10T14:38:59.347Z,31.59
2019-02-10T14:40:08.635Z,31.98
2019-02-10T14:41:16.918Z,32.22
2019-02-10T14:42:25.103Z,32.11
2019-02-10T14:43:33.926Z,31.98
2019-02-10T14:44:42.462Z,32.63
2019-02-10T14:45:50.414Z,32.61
2019-02-10T14:46:59.005Z,32.59
2019-02-10T14:48:07.486Z,32.83
2019-02-10T14:49:15.823Z,32.89
2019-02-10T14:50:24.286Z,32.97
2019-02-10T14:51:32.816Z,33.20
2019-02-10T14:52:40.945Z,33.24
2019-02-10T14:53:49.010Z,33.43
2019-02-10T14:54:57.375Z,33.47
2019-02-10T14:56:07.022Z,33.43
2019-02-10T14:57:15.131Z,33.60
2019-02-10T14:58:23.250Z,33.61
2019-02-10T14:59:31.599Z,33.78
2019-02-10T15:00:39.600Z,33.80
2019-02-10T15:01:48.104Z,33.84
2019-02-10T15:02:56.159Z,34.03
2019-02-10T15:04:04.255Z,34.07
2019-02-10T15:05:12.664Z,34.43
2019-02-10T15:06:21.369Z,34.51
2019-02-10T15:07:32.066Z,34.53
2019-02-10T15:08:40.551Z,34.84